Bon Wier, Texas
Current Conditions -  °F | °C
As of 12:55 PM on Sunday 23 Nov 2014 (Local Time) from KDRI Reporting Station
Scattered Clouds Scattered Clouds  
Wind Chill: 69°   Ceiling: Unl
Heat Index: 69°   Visibility: 10mi
Dew Point: 60°   Wind: 12mph
Humidity: 71%   Direction: 210°SSW
Pressure: 29.59"   Gusts: NA
Location:  30.74°N, 93.64°W
Report Text: KDRI 231855Z AUTO 21010KT 10SM SCT023 21/15 A2959 RMK AO2 T02080153
Loading
Personal Weather Stations






























Interactive Weather Map New forecast layout! Learn more

10-Day Weather Forecast

Advertisements
Track Severe Weather on mobile